createdAt,value
2023-05-20T00:01:22.769Z,15.35
2023-05-20T00:04:08.716Z,17.58
2023-05-20T00:06:54.914Z,20.23
2023-05-20T00:09:40.696Z,15.73
2023-05-20T00:12:26.370Z,12.82
2023-05-20T00:15:14.873Z,12.93
2023-05-20T00:18:01.651Z,17.02
2023-05-20T00:20:47.253Z,17.60
2023-05-20T00:23:32.996Z,14.10
2023-05-20T00:26:21.401Z,18.20
2023-05-20T00:29:06.991Z,15.38
2023-05-20T00:31:52.627Z,13.68
2023-05-20T00:34:39.662Z,11.68
2023-05-20T00:37:26.239Z,15.75
2023-05-20T00:40:14.160Z,20.63
2023-05-20T00:43:01.519Z,18.10
2023-05-20T00:45:47.700Z,17.17
2023-05-20T00:48:42.243Z,15.70
2023-05-20T00:51:27.665Z,17.15
2023-05-20T00:54:13.168Z,18.38
2023-05-20T00:56:59.524Z,15.95
2023-05-20T00:59:45.130Z,18.83
2023-05-20T01:02:31.253Z,21.17
2023-05-20T01:05:16.650Z,16.40
2023-05-20T01:08:02.680Z,18.48
2023-05-20T01:10:56.172Z,15.25
2023-05-20T01:13:47.933Z,16.42
2023-05-20T01:16:35.483Z,17.70
2023-05-20T01:19:44.557Z,16.88
2023-05-20T01:22:30.398Z,15.38
2023-05-20T01:25:15.854Z,15.35
2023-05-20T01:28:01.842Z,24.98
2023-05-20T01:30:52.343Z,19.27
2023-05-20T01:33:40.058Z,16.52
2023-05-20T01:36:27.749Z,16.70
2023-05-20T01:39:14.199Z,20.88
2023-05-20T01:42:02.224Z,18.27
2023-05-20T01:44:48.073Z,19.98
2023-05-20T01:47:33.767Z,19.52
2023-05-20T01:50:19.171Z,14.93
2023-05-20T01:53:04.645Z,15.95
2023-05-20T01:55:50.353Z,16.35
2023-05-20T01:58:35.786Z,18.35
2023-05-20T02:01:21.277Z,19.27
2023-05-20T02:04:06.890Z,16.90
2023-05-20T02:06:52.474Z,15.80
2023-05-20T02:09:38.121Z,16.85
2023-05-20T02:12:23.294Z,18.30
2023-05-20T02:15:09.317Z,21.52
2023-05-20T02:17:54.992Z,18.98
2023-05-20T02:20:41.235Z,14.85
2023-05-20T02:23:27.098Z,15.85
2023-05-20T02:26:12.531Z,20.90
2023-05-20T02:28:58.060Z,28.25
2023-05-20T02:31:43.469Z,18.95
2023-05-20T02:34:30.379Z,19.20
2023-05-20T02:37:15.984Z,21.08
2023-05-20T02:40:01.338Z,19.80
2023-05-20T02:42:47.190Z,18.33
2023-05-20T02:45:32.657Z,20.23
2023-05-20T02:48:18.286Z,25.52
2023-05-20T02:51:03.798Z,27.80
2023-05-20T02:53:49.351Z,19.95
2023-05-20T02:56:34.950Z,21.15
2023-05-20T02:59:20.248Z,21.48
2023-05-20T03:02:05.764Z,18.13
2023-05-20T03:04:54.034Z,21.65
2023-05-20T03:07:39.654Z,24.33
2023-05-20T03:10:25.279Z,23.20
2023-05-20T03:13:11.624Z,20.20
2023-05-20T03:15:57.288Z,18.92
2023-05-20T03:18:43.047Z,17.33
2023-05-20T03:21:29.224Z,19.70
2023-05-20T03:24:15.096Z,15.32
2023-05-20T03:27:00.808Z,23.52
2023-05-20T03:29:45.970Z,21.00
2023-05-20T03:32:31.492Z,16.52
2023-05-20T03:35:16.915Z,25.23
2023-05-20T03:38:02.584Z,18.70
2023-05-20T03:40:48.086Z,19.92
2023-05-20T03:43:33.647Z,19.95
2023-05-20T03:46:19.471Z,21.73
2023-05-20T03:49:06.145Z,18.17
2023-05-20T03:51:51.744Z,24.77
2023-05-20T03:54:37.452Z,20.90
2023-05-20T03:57:23.185Z,19.02
2023-05-20T04:00:14.455Z,21.92
2023-05-20T04:03:00.593Z,18.70
2023-05-20T04:05:46.270Z,19.77
2023-05-20T04:08:31.902Z,21.35
2023-05-20T04:11:17.533Z,23.52
2023-05-20T04:14:03.023Z,23.02
2023-05-20T04:16:50.329Z,29.10
2023-05-20T04:19:36.277Z,24.15
2023-05-20T04:22:21.647Z,19.70
2023-05-20T04:25:07.830Z,19.77
2023-05-20T04:27:54.292Z,26.27
2023-05-20T04:30:39.868Z,23.83
2023-05-20T04:33:26.665Z,21.55
2023-05-20T04:36:16.362Z,28.83
2023-05-20T04:39:03.665Z,24.42
2023-05-20T04:41:49.274Z,21.58
2023-05-20T04:48:57.164Z,25.58
2023-05-20T04:51:43.871Z,31.08
2023-05-20T04:54:30.005Z,22.75
2023-05-20T04:57:15.358Z,25.42
2023-05-20T05:00:01.212Z,33.00
2023-05-20T05:02:47.702Z,23.48
2023-05-20T05:05:34.531Z,26.55
2023-05-20T05:08:19.954Z,23.60
2023-05-20T05:11:06.879Z,21.40
2023-05-20T05:13:53.154Z,23.30
2023-05-20T05:16:38.379Z,23.77
2023-05-20T05:19:23.981Z,21.70
2023-05-20T05:22:09.613Z,26.50
2023-05-20T05:24:55.908Z,23.73
2023-05-20T05:27:41.599Z,20.55
2023-05-20T05:30:27.484Z,26.92
2023-05-20T05:33:14.990Z,24.00
2023-05-20T05:36:01.857Z,22.35
2023-05-20T05:38:47.383Z,26.75
2023-05-20T05:41:33.456Z,24.60
2023-05-20T05:44:18.940Z,24.02
2023-05-20T05:47:06.108Z,23.30
2023-05-20T05:49:51.859Z,28.35
2023-05-20T05:52:37.404Z,27.25
2023-05-20T05:55:24.040Z,27.90
2023-05-20T05:58:09.501Z,25.50
2023-05-20T06:00:55.249Z,26.08
2023-05-20T06:03:40.618Z,24.65
2023-05-20T06:06:27.244Z,25.88
2023-05-20T06:09:12.865Z,28.00
2023-05-20T06:11:58.327Z,27.33
2023-05-20T06:14:43.731Z,23.50
2023-05-20T06:17:29.355Z,24.15
2023-05-20T06:20:15.063Z,24.38
2023-05-20T06:23:00.935Z,25.65
2023-05-20T06:25:46.591Z,27.88
2023-05-20T06:28:31.929Z,21.45
2023-05-20T06:31:17.690Z,24.73
2023-05-20T06:34:03.568Z,24.48
2023-05-20T06:36:49.088Z,25.05
2023-05-20T06:39:34.618Z,32.45
2023-05-20T06:42:21.259Z,23.13
2023-05-20T06:45:07.263Z,25.30
2023-05-20T06:47:54.346Z,27.27
2023-05-20T06:50:40.126Z,26.23
2023-05-20T06:53:25.623Z,23.20
2023-05-20T06:56:11.511Z,28.05
2023-05-20T06:58:57.093Z,23.88
2023-05-20T07:01:42.600Z,21.45
2023-05-20T07:04:28.382Z,24.55
2023-05-20T07:07:14.960Z,25.67
2023-05-20T07:10:02.086Z,22.95
2023-05-20T07:12:47.489Z,31.33
2023-05-20T07:15:33.225Z,21.15
2023-05-20T07:18:19.334Z,24.08
2023-05-20T07:21:04.529Z,19.02
2023-05-20T07:23:50.144Z,25.02
2023-05-20T07:26:36.530Z,23.83
2023-05-20T07:29:21.955Z,24.77
2023-05-20T07:32:09.610Z,19.58
2023-05-20T07:34:54.921Z,21.65
2023-05-20T07:37:40.789Z,22.92
2023-05-20T07:40:26.481Z,17.80
2023-05-20T07:43:11.883Z,23.38
2023-05-20T07:45:57.470Z,20.98
2023-05-20T07:48:43.654Z,21.08
2023-05-20T07:51:28.737Z,20.40
2023-05-20T07:54:15.302Z,21.73
2023-05-20T07:57:01.077Z,25.23
2023-05-20T07:59:46.515Z,20.73
2023-05-20T08:02:31.914Z,19.63
2023-05-20T08:05:17.822Z,23.05
2023-05-20T08:08:03.272Z,20.63
2023-05-20T08:10:49.080Z,18.55
2023-05-20T08:13:34.864Z,20.75
2023-05-20T08:16:22.357Z,20.17
2023-05-20T08:19:08.001Z,16.58
2023-05-20T08:21:54.434Z,19.10
2023-05-20T08:24:40.155Z,19.63
2023-05-20T08:27:26.292Z,16.40
2023-05-20T08:30:17.486Z,18.92
2023-05-20T08:33:03.157Z,19.00
2023-05-20T08:35:48.940Z,19.00
2023-05-20T08:38:34.778Z,14.95
2023-05-20T08:41:25.134Z,19.80
2023-05-20T08:44:11.910Z,20.63
2023-05-20T08:46:58.054Z,22.75
2023-05-20T08:49:43.813Z,18.60
2023-05-20T08:52:34.781Z,16.85
2023-05-20T08:55:27.850Z,18.90
2023-05-20T09:01:01.007Z,15.68
2023-05-20T09:03:46.546Z,15.40
2023-05-20T09:06:43.751Z,22.33
2023-05-20T09:09:30.180Z,19.20
2023-05-20T09:12:16.086Z,19.60
2023-05-20T09:15:01.407Z,13.82
2023-05-20T09:17:50.217Z,20.58
2023-05-20T09:20:37.425Z,12.18
2023-05-20T09:23:22.886Z,17.00
2023-05-20T09:26:08.601Z,16.75
2023-05-20T09:28:55.740Z,14.93
2023-05-20T09:31:41.413Z,10.70
2023-05-20T09:34:27.030Z,14.05
2023-05-20T09:37:14.695Z,17.17
2023-05-20T09:40:10.079Z,15.60
2023-05-20T09:43:07.767Z,15.35
2023-05-20T09:45:55.518Z,15.15
2023-05-20T09:48:41.028Z,15.13
2023-05-20T09:51:29.671Z,11.68
2023-05-20T09:54:18.140Z,14.07
2023-05-20T09:57:04.947Z,14.65
2023-05-20T09:59:51.431Z,12.65
2023-05-20T10:02:38.198Z,11.98
2023-05-20T10:05:37.782Z,14.73
2023-05-20T10:08:29.018Z,17.40
2023-05-20T10:11:35.511Z,11.18
2023-05-20T10:14:50.443Z,8.65
2023-05-20T10:18:01.599Z,12.27
2023-05-20T10:20:51.355Z,16.83
2023-05-20T10:23:37.428Z,14.43
2023-05-20T10:26:22.850Z,14.27
2023-05-20T10:29:22.685Z,14.02
2023-05-20T10:32:08.509Z,10.82
2023-05-20T10:35:09.159Z,10.48
2023-05-20T10:38:07.393Z,13.15
2023-05-20T10:40:53.356Z,11.30
2023-05-20T10:43:38.899Z,12.02
2023-05-20T10:46:34.004Z,11.15
2023-05-20T10:49:24.036Z,9.13
2023-05-20T10:52:13.700Z,8.95
2023-05-20T10:55:00.974Z,9.75
2023-05-20T10:57:46.890Z,10.45
2023-05-20T11:00:36.433Z,13.90
2023-05-20T11:03:23.362Z,10.90
2023-05-20T11:06:18.558Z,10.75
2023-05-20T11:09:07.902Z,10.27
2023-05-20T11:11:55.213Z,10.43
2023-05-20T11:14:41.276Z,11.10
2023-05-20T11:17:26.710Z,11.05
2023-05-20T11:20:15.101Z,9.05
2023-05-20T11:23:01.091Z,8.30
2023-05-20T11:25:47.128Z,8.98
2023-05-20T11:28:33.440Z,12.93
2023-05-20T11:31:19.505Z,12.20
2023-05-20T11:34:05.845Z,13.50
2023-05-20T11:36:58.530Z,9.55
2023-05-20T11:39:44.454Z,11.75
2023-05-20T11:42:32.750Z,11.20
2023-05-20T11:45:18.905Z,8.60
2023-05-20T11:48:06.323Z,8.10
2023-05-20T11:50:54.070Z,8.63
2023-05-20T11:53:41.743Z,8.10
2023-05-20T11:56:30.412Z,6.78
2023-05-20T11:59:16.006Z,5.85
2023-05-20T12:02:01.265Z,7.78
2023-05-20T12:04:46.631Z,8.07
2023-05-20T12:07:31.968Z,10.85
2023-05-20T12:10:17.395Z,9.05
2023-05-20T12:13:03.364Z,11.00
2023-05-20T12:15:48.959Z,7.88
2023-05-20T12:18:34.728Z,11.85
2023-05-20T12:21:20.261Z,6.05
2023-05-20T12:24:07.202Z,8.70
2023-05-20T12:26:52.610Z,8.65
2023-05-20T12:29:37.783Z,10.45
2023-05-20T12:32:23.952Z,9.40
2023-05-20T12:35:10.837Z,13.85
2023-05-20T12:37:56.463Z,7.95
2023-05-20T12:40:41.799Z,9.45
2023-05-20T12:43:27.607Z,8.88
2023-05-20T12:46:12.965Z,6.82
2023-05-20T12:48:58.651Z,6.75
2023-05-20T12:51:44.409Z,4.55
2023-05-20T12:54:30.273Z,10.70
2023-05-20T12:57:16.623Z,7.80
2023-05-20T13:00:02.113Z,8.45
2023-05-20T13:02:48.283Z,7.53
2023-05-20T13:05:34.208Z,10.25
2023-05-20T13:08:19.742Z,5.95
2023-05-20T13:11:05.404Z,8.18
2023-05-20T13:13:50.933Z,6.07
2023-05-20T13:16:36.635Z,8.10
2023-05-20T13:19:23.311Z,6.68
2023-05-20T13:22:11.854Z,6.88
2023-05-20T13:24:57.548Z,7.57
2023-05-20T13:27:43.014Z,7.07
2023-05-20T13:30:28.689Z,11.70
2023-05-20T13:33:14.172Z,8.63
2023-05-20T13:36:00.560Z,7.88
2023-05-20T13:38:46.085Z,6.07
2023-05-20T13:41:32.366Z,7.50
2023-05-20T13:44:18.160Z,11.52
2023-05-20T13:47:04.008Z,4.15
2023-05-20T13:49:49.481Z,10.60
2023-05-20T13:52:34.945Z,10.27
2023-05-20T13:55:21.217Z,11.02
2023-05-20T13:58:10.593Z,7.00
2023-05-20T14:00:56.999Z,5.15
2023-05-20T14:03:42.835Z,8.73
2023-05-20T14:06:29.395Z,20.27
2023-05-20T14:09:15.272Z,32.10
2023-05-20T14:12:01.180Z,8.18
2023-05-20T14:14:46.598Z,7.85
2023-05-20T14:17:32.453Z,6.20
2023-05-20T14:20:17.845Z,6.93
2023-05-20T14:23:03.493Z,8.45
2023-05-20T14:25:49.012Z,4.70
2023-05-20T14:28:34.696Z,7.13
2023-05-20T14:31:21.075Z,6.82
2023-05-20T14:34:06.960Z,8.07
2023-05-20T14:36:53.299Z,6.93
2023-05-20T14:39:39.647Z,8.38
2023-05-20T14:42:25.587Z,9.07
2023-05-20T14:45:11.551Z,10.43
2023-05-20T14:47:57.265Z,6.88
2023-05-20T14:50:42.743Z,15.63
2023-05-20T14:53:28.490Z,12.82
2023-05-20T14:56:13.718Z,11.90
2023-05-20T14:58:59.289Z,8.95
2023-05-20T15:01:44.868Z,9.77
2023-05-20T15:04:30.472Z,6.43
2023-05-20T15:07:15.906Z,7.45
2023-05-20T15:10:01.428Z,7.15
2023-05-20T15:12:46.780Z,12.43
2023-05-20T15:15:33.702Z,5.72
2023-05-20T15:18:18.821Z,8.55
2023-05-20T15:21:04.905Z,10.70
2023-05-20T15:23:50.483Z,12.57
2023-05-20T15:26:36.245Z,9.65
2023-05-20T15:29:22.109Z,5.45
2023-05-20T15:32:07.580Z,9.95
2023-05-20T15:34:53.128Z,7.93
2023-05-20T15:37:38.613Z,7.38
2023-05-20T15:40:24.078Z,7.72
2023-05-20T15:43:09.727Z,6.97
2023-05-20T15:45:55.364Z,7.93
2023-05-20T15:48:41.184Z,6.30
2023-05-20T15:51:26.935Z,5.03
2023-05-20T15:54:12.437Z,7.47
2023-05-20T15:56:58.133Z,7.95
2023-05-20T15:59:43.712Z,6.85
2023-05-20T16:02:31.933Z,6.90
2023-05-20T16:05:18.337Z,6.50
2023-05-20T16:08:03.782Z,6.75
2023-05-20T16:10:50.464Z,7.03
2023-05-20T16:13:36.300Z,4.85
2023-05-20T16:16:21.624Z,6.63
2023-05-20T16:19:07.008Z,9.40
2023-05-20T16:21:52.400Z,8.00
2023-05-20T16:24:38.105Z,12.32
2023-05-20T16:27:23.469Z,8.15
2023-05-20T16:30:09.714Z,6.00
2023-05-20T16:32:55.086Z,6.32
2023-05-20T16:35:40.550Z,6.30
2023-05-20T16:38:26.255Z,9.43
2023-05-20T16:41:11.594Z,9.43
2023-05-20T16:43:57.015Z,7.50
2023-05-20T16:46:42.822Z,7.57
2023-05-20T16:49:28.627Z,3.55
2023-05-20T16:52:13.832Z,5.18
2023-05-20T16:55:03.850Z,5.28
2023-05-20T16:57:50.564Z,9.43
2023-05-20T17:00:36.170Z,6.55
2023-05-20T17:03:22.138Z,16.55
2023-05-20T17:06:09.368Z,8.40
2023-05-20T17:08:55.163Z,7.68
2023-05-20T17:11:41.132Z,6.72
2023-05-20T17:14:26.830Z,6.97
2023-05-20T17:17:14.008Z,6.45
2023-05-20T17:19:59.518Z,7.88
2023-05-20T17:22:44.924Z,6.93
2023-05-20T17:25:30.533Z,9.63
2023-05-20T17:28:15.724Z,6.72
2023-05-20T17:31:01.392Z,8.00
2023-05-20T17:33:46.989Z,13.20
2023-05-20T17:36:32.756Z,8.23
2023-05-20T17:39:18.322Z,6.95
2023-05-20T17:42:03.758Z,5.28
2023-05-20T17:44:49.452Z,7.30
2023-05-20T17:47:34.936Z,6.97
2023-05-20T17:50:20.579Z,12.50
2023-05-20T17:53:06.516Z,8.23
2023-05-20T17:55:51.737Z,9.98
2023-05-20T17:58:37.439Z,4.35
2023-05-20T18:01:23.427Z,8.35
2023-05-20T18:04:09.679Z,5.20
2023-05-20T18:06:54.983Z,5.35
2023-05-20T18:09:40.521Z,7.80
2023-05-20T18:12:25.735Z,8.38
2023-05-20T18:15:13.932Z,6.22
2023-05-20T18:17:59.705Z,7.38
2023-05-20T18:20:45.411Z,4.32
2023-05-20T18:23:31.001Z,5.57
2023-05-20T18:26:17.089Z,6.03
2023-05-20T18:29:03.569Z,7.05
2023-05-20T18:31:49.267Z,6.70
2023-05-20T18:34:34.855Z,5.80
2023-05-20T18:37:20.541Z,6.75
2023-05-20T18:40:07.020Z,5.32
2023-05-20T18:42:52.528Z,5.82
2023-05-20T18:45:38.058Z,4.43
2023-05-20T18:48:27.022Z,4.55
2023-05-20T18:51:12.994Z,7.85
2023-05-20T18:53:58.758Z,5.80
2023-05-20T18:56:44.744Z,5.68
2023-05-20T18:59:31.254Z,8.00
2023-05-20T19:02:17.500Z,3.72
2023-05-20T19:05:03.161Z,4.65
2023-05-20T19:07:48.726Z,5.50
2023-05-20T19:10:34.238Z,6.97
2023-05-20T19:13:19.790Z,4.35
2023-05-20T19:16:05.657Z,5.65
2023-05-20T19:18:51.475Z,3.65
2023-05-20T19:21:39.394Z,6.13
2023-05-20T19:24:24.943Z,5.78
2023-05-20T19:27:10.493Z,6.25
2023-05-20T19:29:56.066Z,4.18
2023-05-20T19:32:41.990Z,6.28
2023-05-20T19:35:27.872Z,4.78
2023-05-20T19:38:13.653Z,3.22
2023-05-20T19:40:58.939Z,5.57
2023-05-20T19:43:44.697Z,8.10
2023-05-20T19:46:30.523Z,3.90
2023-05-20T19:49:16.488Z,4.93
2023-05-20T19:52:02.042Z,7.15
2023-05-20T19:54:47.835Z,6.20
2023-05-20T19:57:33.214Z,4.78
2023-05-20T20:00:19.503Z,6.63
2023-05-20T20:03:07.261Z,3.60
2023-05-20T20:05:53.070Z,5.05
2023-05-20T20:08:39.481Z,4.25
2023-05-20T20:11:25.071Z,5.43
2023-05-20T20:14:10.878Z,6.40
2023-05-20T20:16:57.536Z,2.22
2023-05-20T20:19:47.991Z,5.40
2023-05-20T20:22:33.321Z,6.43
2023-05-20T20:25:20.368Z,4.90
2023-05-20T20:28:07.613Z,8.45
2023-05-20T20:30:53.667Z,6.63
2023-05-20T20:33:39.492Z,8.32
2023-05-20T20:36:25.293Z,7.03
2023-05-20T20:39:15.295Z,7.20
2023-05-20T20:42:02.953Z,5.32
2023-05-20T20:44:48.860Z,6.38
2023-05-20T20:47:34.685Z,7.93
2023-05-20T20:50:21.688Z,6.72
2023-05-20T20:53:08.372Z,8.85
2023-05-20T20:55:54.183Z,10.70
2023-05-20T20:58:39.901Z,8.60
2023-05-20T21:01:25.834Z,4.65
2023-05-20T21:04:14.324Z,6.32
2023-05-20T21:07:02.016Z,6.95
2023-05-20T21:09:49.816Z,6.15
2023-05-20T21:12:35.572Z,10.80
2023-05-20T21:15:21.018Z,5.13
2023-05-20T21:18:06.819Z,5.43
2023-05-20T21:20:53.756Z,6.88
2023-05-20T21:23:39.723Z,9.50
2023-05-20T21:26:25.763Z,7.90
2023-05-20T21:29:12.180Z,7.10
2023-05-20T21:31:58.115Z,6.75
2023-05-20T21:34:43.992Z,6.78
2023-05-20T21:37:29.660Z,7.30
2023-05-20T21:40:14.821Z,7.38
2023-05-20T21:43:00.596Z,3.70
2023-05-20T21:45:46.297Z,8.82
2023-05-20T21:48:31.814Z,7.07
2023-05-20T21:51:17.246Z,7.55
2023-05-20T21:54:02.738Z,5.65
2023-05-20T21:56:48.240Z,10.75
2023-05-20T21:59:33.766Z,6.60
2023-05-20T22:02:19.311Z,7.50
2023-05-20T22:05:05.268Z,6.35
2023-05-20T22:07:51.473Z,9.30
2023-05-20T22:10:36.957Z,6.20
2023-05-20T22:13:26.071Z,7.60
2023-05-20T22:16:11.506Z,7.65
2023-05-20T22:18:57.281Z,6.82
2023-05-20T22:21:50.320Z,5.68
2023-05-20T22:24:36.595Z,9.80
2023-05-20T22:27:22.243Z,8.18
2023-05-20T22:30:08.530Z,7.40
2023-05-20T22:32:54.053Z,7.70
2023-05-20T22:35:39.651Z,5.40
2023-05-20T22:38:24.962Z,6.30
2023-05-20T22:41:10.825Z,5.90
2023-05-20T22:43:59.395Z,6.97
2023-05-20T22:46:44.611Z,5.15
2023-05-20T22:49:30.066Z,7.55
2023-05-20T22:52:15.672Z,7.97
2023-05-20T22:55:01.286Z,5.80
2023-05-20T22:57:46.803Z,6.80
2023-05-20T23:00:32.243Z,6.47
2023-05-20T23:03:17.680Z,7.00
2023-05-20T23:06:03.676Z,7.00
2023-05-20T23:08:49.306Z,8.90
2023-05-20T23:11:34.750Z,6.10
2023-05-20T23:14:20.466Z,8.27
2023-05-20T23:17:06.137Z,9.32
2023-05-20T23:19:51.748Z,6.38
2023-05-20T23:22:38.058Z,8.82
2023-05-20T23:25:26.444Z,6.57
2023-05-20T23:28:12.150Z,4.40
2023-05-20T23:30:57.801Z,6.20
2023-05-20T23:33:43.739Z,9.05
2023-05-20T23:36:29.777Z,4.65
2023-05-20T23:39:17.512Z,6.10
2023-05-20T23:42:04.216Z,5.95
2023-05-20T23:44:49.366Z,10.32
2023-05-20T23:47:36.446Z,5.55
2023-05-20T23:50:22.088Z,5.18
2023-05-20T23:53:07.417Z,6.53
2023-05-20T23:55:52.936Z,7.20
2023-05-20T23:58:38.568Z,4.78
